Flight Track Log - Related Links

Times and Time Zones

All times are in EDT time to prevent confusion due to time zone crossing. See the SWA118 flight status page for this flight to view local times or setup timezone preferences in your user account.

Time Position Orientation Groundspeed Altitude Reporting Facility
EDT Latitude Longitude Course Direction KTS MPH feet Rate Location/Type
Sat 11:44:22 PM 39.9000 -104.7667 252° West 248 285 9,600  Level Denver TRACON
Sat 11:45:05 PM 39.8639 -104.8264 232° Southwest 251 289 11,300 1,904 Climbing Denver Center
Sat 11:46:06 PM 39.8239 -104.9342 244° Southwest 336 387 12,900 2,852 Climbing Denver Center
Sat 11:47:07 PM 39.7825 -105.0392 243° Southwest 324 373 17,100 3,174 Climbing Denver Center
Sat 11:48:07 PM 39.7417 -105.1425 243° Southwest 324 373 19,300 2,430 Climbing Denver Center
Sat 11:49:08 PM 39.6972 -105.2533 243° Southwest 344 396 22,000 2,182 Climbing Denver Center
Sat 11:50:08 PM 39.6550 -105.3619 243° Southwest 338 389 23,700 902 Climbing Denver Center
Sat 11:51:21 PM 39.6078 -105.4803 243° Southwest 371 427 24,000 134 Climbing Denver Center
Sat 11:52:22 PM 39.5406 -105.6231 239° Southwest 380 437 24,000  Level Denver Center
Sat 11:53:22 PM 39.4797 -105.7336 235° Southwest 376 433 24,000  Level Denver Center
Sat 11:54:23 PM 39.4192 -105.8536 237° Southwest 372 428 24,000  Level Denver Center
Sat 11:55:23 PM 39.3603 -105.9658 236° Southwest 372 428 24,000  Level Denver Center
Sat 11:56:24 PM 39.3014 -106.0761 235° Southwest 372 428 24,000  Level Denver Center
Sat 11:57:24 PM 39.2469 -106.1789 236° Southwest 369 425 24,000  Level Denver Center
Sat 11:58:25 PM 39.1936 -106.2814 236° Southwest 362 417 24,000  Level Denver Center
Sat 11:59:26 PM 39.1300 -106.3986 235° Southwest 358 412 24,000  Level Denver Center
Sun 12:00:26 AM 39.0772 -106.4983 236° Southwest 353 406 24,000 843 Level Denver Center
Sun 12:01:27 AM 39.0253 -106.5944 235° Southwest 345 397 25,700 992 Climbing Denver Center
Sun 12:02:27 AM 38.9656 -106.7036 235° Southwest 336 387 26,000 942 Climbing Denver Center
Sun 12:03:28 AM 38.9128 -106.8031 236° Southwest 348 400 27,600 1,636 Climbing Denver Center
Sun 12:04:28 AM 38.8567 -106.9075 235° Southwest 345 397 29,300 1,190 Climbing Denver Center
Sun 12:05:29 AM 38.8008 -107.0103 235° Southwest 348 400 30,000 347 Climbing Denver Center
Sun 12:06:29 AM 38.7414 -107.1186 235° Southwest 370 426 30,000  Level Denver Center
Sun 12:07:30 AM 38.6822 -107.2250 235° Southwest 385 443 30,000  Level Denver Center
Sun 12:08:30 AM 38.6258 -107.3292 235° Southwest 373 429 30,000 893 Level Denver Center
Sun 12:09:31 AM 38.5617 -107.4447 235° Southwest 357 411 31,800 1,240 Climbing Denver Center
Sun 12:10:31 AM 38.5069 -107.5458 235° Southwest 360 414 32,500 1,537 Climbing Denver Center
Sun 12:11:32 AM 38.4508 -107.6467 235° Southwest 364 419 34,900 1,736 Climbing Denver Center
Sun 12:12:32 AM 38.3906 -107.7550 235° Southwest 344 396 36,000 550 Climbing Denver Center
Sun 12:13:32 AM 38.3369 -107.8517 235° Southwest 346 398 36,000  Level Denver Center
Sun 12:14:33 AM 38.2825 -107.9528 236° Southwest 358 412 36,000  Level Denver Center
Sun 12:15:33 AM 38.2325 -108.0586 239° Southwest 363 418 36,000  Level Denver Center
Sun 12:16:34 AM 38.1711 -108.1847 238° Southwest 373 429 36,000  Level Denver Center
Sun 12:17:34 AM 38.1172 -108.2925 238° Southwest 375 432 36,000  Level Denver Center
Sun 12:18:34 AM 38.0575 -108.4128 238° Southwest 370 426 36,000  Level Denver Center
Sun 12:19:35 AM 38.0061 -108.5186 238° Southwest 368 423 36,000  Level Denver Center
Sun 12:20:35 AM 37.9531 -108.6208 237° Southwest 366 421 36,000  Level Denver Center
Sun 12:21:36 AM 37.9008 -108.7267 238° Southwest 368 423 36,000  Level Denver Center
Sun 12:22:36 AM 37.8394 -108.8525 238° Southwest 374 430 36,000  Level Denver Center
Sun 12:23:37 AM 37.7856 -108.9556 237° Southwest 370 426 36,000  Level Denver Center
Sun 12:24:37 AM 37.7319 -109.0628 238° Southwest 375 432 36,000  Level Denver Center
Sun 12:25:37 AM 37.6703 -109.1853 238° Southwest 372 428 36,000  Level Denver Center
Sun 12:26:38 AM 37.6167 -109.2889 237° Southwest 370 426 36,000  Level Denver Center
Sun 12:27:38 AM 37.5644 -109.3933 238° Southwest 369 425 36,000  Level Denver Center
Sun 12:28:39 AM 37.5031 -109.5125 237° Southwest 365 420 36,000  Level Denver Center
Sun 12:29:39 AM 37.4511 -109.6142 237° Southwest 362 417 36,000  Level Denver Center
Sun 12:30:39 AM 37.3981 -109.7167 237° Southwest 367 422 36,000  Level Denver Center
Sun 12:31:40 AM 37.3344 -109.8389 237° Southwest 374 430 36,000  Level Denver Center
Sun 12:32:40 AM 37.2800 -109.9447 237° Southwest 377 434 36,000  Level Denver Center
Sun 12:33:41 AM 37.2264 -110.0489 237° Southwest 373 429 36,000  Level Denver Center
Sun 12:34:41 AM 37.1750 -110.1475 237° Southwest 358 412 36,000  Level Denver Center
Sun 12:35:41 AM 37.1178 -110.2561 237° Southwest 358 412 36,000 50 Level Denver Center
Sun 12:36:42 AM 37.0642 -110.3597 237° Southwest 356 410 36,100  Climbing Denver Center
Sun 12:37:42 AM 37.0086 -110.4650 237° Southwest 362 417 36,000 -50 Descending Denver Center
Sun 12:38:42 AM 36.9533 -110.5672 236° Southwest 356 410 36,000  Level Denver Center
Sun 12:39:43 AM 36.8978 -110.6733 237° Southwest 363 418 36,000  Level Denver Center
Sun 12:40:43 AM 36.8422 -110.7783 237° Southwest 363 418 36,000  Level Denver Center
Sun 12:41:44 AM 36.7872 -110.8814 236° Southwest 357 411 36,000  Level Denver Center
Sun 12:42:44 AM 36.7328 -110.9839 236° Southwest 355 409 36,000  Level Denver Center
Sun 12:43:44 AM 36.6789 -111.0858 237° Southwest 352 405 36,000  Level Denver Center
Sun 12:44:45 AM 36.6239 -111.1881 236° Southwest 354 407 36,000  Level Denver Center
Sun 12:45:45 AM 36.5686 -111.2889 236° Southwest 353 406 36,000  Level Denver Center
Sun 12:46:45 AM 36.5072 -111.3886 233° Southwest 358 412 36,000  Level Denver Center
Sun 12:47:46 AM 36.4447 -111.4881 232° Southwest 362 417 36,000  Level Denver Center
Sun 12:48:46 AM 36.3822 -111.5900 233° Southwest 367 422 36,000  Level Denver Center
Sun 12:49:46 AM 36.3197 -111.6889 232° Southwest 366 421 36,000  Level Denver Center
Sun 12:50:47 AM 36.2589 -111.7903 233° Southwest 366 421 36,000  Level Denver Center
Sun 12:51:47 AM 36.1961 -111.8897 232° Southwest 366 421 36,000  Level Denver Center
Sun 12:52:48 AM 36.1308 -111.9936 232° Southwest 376 433 36,000  Level Denver Center
Sun 12:53:48 AM 36.0658 -112.0972 232° Southwest 380 437 36,000  Level Denver Center
Sun 12:54:03 AM 36.0483 -112.1250 232° Southwest 380 437 36,000  Level Los Angeles Center
Sun 12:55:04 AM 35.9828 -112.2303 232° Southwest 389 448 36,000  Level Los Angeles Center
Sun 12:56:04 AM 35.9050 -112.3536 232° Southwest 382 440 36,000  Level Los Angeles Center
Sun 12:57:05 AM 35.8403 -112.4550 232° Southwest 379 436 36,000  Level Los Angeles Center
Sun 12:58:06 AM 35.7758 -112.5564 232° Southwest 379 436 36,000  Level Los Angeles Center
Sun 12:59:07 AM 35.7114 -112.6586 232° Southwest 380 437 36,000  Level Los Angeles Center
Sun 01:00:20 AM 35.6469 -112.7586 232° Southwest 379 436 36,000  Level Los Angeles Center
Sun 01:01:20 AM 35.5672 -112.8822 232° Southwest 381 438 36,000  Level Los Angeles Center
Sun 01:02:21 AM 35.4942 -112.9981 232° Southwest 391 450 36,000  Level Los Angeles Center
Sun 01:03:22 AM 35.4264 -113.1028 232° Southwest 392 451 36,000  Level Los Angeles Center
Sun 01:04:23 AM 35.3589 -113.2056 231° Southwest 388 447 36,000  Level Los Angeles Center
Sun 01:05:23 AM 35.2900 -113.3122 232° Southwest 391 450 36,000  Level Los Angeles Center
Sun 01:06:24 AM 35.2225 -113.4167 232° Southwest 394 453 36,000  Level Los Angeles Center
Sun 01:07:25 AM 35.1542 -113.5222 232° Southwest 398 458 36,000  Level Los Angeles Center
Sun 01:08:25 AM 35.0864 -113.6261 231° Southwest 395 455 36,000  Level Los Angeles Center
Sun 01:09:26 AM 35.0172 -113.7319 231° Southwest 399 459 36,000  Level Los Angeles Center
Sun 01:10:27 AM 34.9475 -113.8367 231° Southwest 401 461 36,000  Level Los Angeles Center
Sun 01:11:28 AM 34.8781 -113.9431 232° Southwest 403 464 36,000  Level Los Angeles Center
Sun 01:12:28 AM 34.8044 -114.0528 231° Southwest 405 466 36,000  Level Los Angeles Center
Sun 01:13:29 AM 34.7336 -114.1600 231° Southwest 406 467 36,000  Level Los Angeles Center
Sun 01:14:30 AM 34.6619 -114.2661 231° Southwest 406 467 36,000  Level Los Angeles Center
Sun 01:15:31 AM 34.5911 -114.3697 230° Southwest 401 461 36,000  Level Los Angeles Center
Sun 01:16:31 AM 34.5206 -114.4761 231° Southwest 403 464 36,000  Level Los Angeles Center
Sun 01:17:32 AM 34.4503 -114.5828 231° Southwest 404 465 36,000 -344 Level Los Angeles Center
Sun 01:18:33 AM 34.3789 -114.6858 230° Southwest 402 463 35,300 -793 Descending Los Angeles Center
Sun 01:19:33 AM 34.3075 -114.7936 231° Southwest 410 472 34,400 -1,041 Descending Los Angeles Center
Sun 01:20:34 AM 34.2200 -114.9217 230° Southwest 412 474 33,200 -1,082 Descending Los Angeles Center
Sun 01:21:35 AM 34.1461 -115.0292 230° Southwest 416 479 32,200 -942 Descending Los Angeles Center
Sun 01:22:35 AM 34.0717 -115.1394 231° Southwest 422 486 31,300 -893 Descending Los Angeles Center
Sun 01:23:36 AM 33.9969 -115.2481 230° Southwest 423 487 30,400 -934 Descending Los Angeles Center
Sun 01:24:37 AM 33.9214 -115.3586 231° Southwest 428 493 29,400 -942 Descending Los Angeles Center
Sun 01:25:37 AM 33.8447 -115.4700 230° Southwest 432 497 28,500 -942 Descending Los Angeles Center
Sun 01:26:38 AM 33.7672 -115.5808 230° Southwest 433 498 27,500 -942 Descending Los Angeles Center
Sun 01:27:38 AM 33.6908 -115.6925 231° Southwest 435 501 26,600 -942 Descending Los Angeles Center
Sun 01:28:39 AM 33.6128 -115.8042 230° Southwest 436 502 25,600 -984 Descending Los Angeles Center
Sun 01:29:40 AM 33.5242 -115.9061 224° Southwest 445 512 24,600 -1,041 Descending Los Angeles Center
Sun 01:30:40 AM 33.4311 -116.0028 221° Southwest 446 513 23,500 -1,785 Descending Los Angeles Center
Sun 01:31:41 AM 33.3386 -116.0983 221° Southwest 442 509 21,000 -2,410 Descending Los Angeles Center
Sun 01:32:42 AM 33.2533 -116.1883 221° Southwest 422 486 18,600 -2,331 Descending Los Angeles Center
Sun 01:33:42 AM 33.1719 -116.2719 221° Southwest 396 456 16,300 -2,182 Descending Los Angeles Center
Sun 01:34:43 AM 33.0947 -116.3519 221° Southwest 378 435 14,200 -2,115 Descending Los Angeles Center
Sun 01:35:44 AM 33.0128 -116.4361 221° Southwest 358 412 12,000 -1,091 Descending Los Angeles Center
Sun 01:36:44 AM 32.9325 -116.4869 208° Southwest 333 383 12,000 -843 Level Los Angeles Center
Sun 01:37:45 AM 32.8456 -116.5400 207° Southwest 340 391 10,300 -1,388 Descending Los Angeles Center
Sun 01:38:45 AM 32.8003 -116.6231 237° Southwest 305 351 9,200 -1,240 Descending Los Angeles Center
Sun 01:39:46 AM 32.7622 -116.7019 240° Southwest 284 327 7,800 -1,230 Descending Los Angeles Center
Sun 01:40:47 AM 32.7278 -116.7750 241° Southwest 263 303 6,700 -1,140 Descending Los Angeles Center
Sun 01:41:47 AM 32.6972 -116.8475 243° Southwest 250 288 5,500 -1,111 Descending Los Angeles Center
Sun 01:42:08 AM 32.6833 -116.8833 245° Southwest 240 276 5,200 -1,037 Descending Southern California TRACON
Sun 01:43:08 AM 32.6833 -116.9500 270° West 226 260 4,100 -1,100 Descending Southern California TRACON
Sun 01:44:08 AM 32.6833 -117.0167 270° West 203 234 3,000 -1,150 Descending Southern California TRACON
Sun 01:45:08 AM 32.7000 -117.0667 292° West 174 200 1,800 -850 Descending Southern California TRACON
Sun 01:46:08 AM 32.7167 -117.1167 292° West 146 168 1,300 -588 Descending Southern California TRACON
Sun 01:46:50 AM 32.7206 -117.1397 281° West 144 166 800 -522 Descending Los Angeles Center
Sun 01:48:03 AM 32.7356 -117.1894 290° West 143 165 300 -411 Descending Los Angeles Center
Sun 01:50:00 AM 32.7333 -117.1833 281° West  Level FlightAware Approximate

Login

Don't have an account? Register now (free) for customized features, flight alerts, and more!